createdAt,value
2018-03-20T00:02:19.133Z,12.05
2018-03-20T00:04:47.297Z,12.06
2018-03-20T00:07:15.684Z,12.15
2018-03-20T00:09:43.858Z,12.30
2018-03-20T00:12:12.031Z,12.22
2018-03-20T00:14:40.401Z,11.60
2018-03-20T00:17:09.091Z,11.36
2018-03-20T00:19:37.985Z,11.79
2018-03-20T00:22:06.560Z,12.01
2018-03-20T00:24:34.844Z,12.09
2018-03-20T00:27:03.224Z,12.08
2018-03-20T00:29:31.402Z,12.10
2018-03-20T00:31:59.775Z,11.54
2018-03-20T00:34:28.070Z,11.78
2018-03-20T00:36:56.521Z,11.87
2018-03-20T00:39:24.787Z,11.93
2018-03-20T00:41:53.010Z,12.00
2018-03-20T00:44:21.149Z,10.91
2018-03-20T00:46:49.639Z,11.37
2018-03-20T00:49:18.617Z,11.73
2018-03-20T00:51:47.302Z,11.59
2018-03-20T00:54:15.681Z,10.88
2018-03-20T00:56:44.270Z,11.22
2018-03-20T00:59:12.474Z,10.94
2018-03-20T01:01:41.225Z,10.72
2018-03-20T01:04:09.799Z,10.68
2018-03-20T01:06:38.071Z,10.50
2018-03-20T01:09:06.357Z,10.93
2018-03-20T01:11:34.842Z,10.79
2018-03-20T01:14:03.114Z,11.37
2018-03-20T01:16:31.393Z,11.45
2018-03-20T01:18:59.766Z,11.74
2018-03-20T01:21:27.942Z,11.48
2018-03-20T01:23:56.109Z,10.51
2018-03-20T01:26:24.489Z,10.56
2018-03-20T01:28:52.569Z,10.37
2018-03-20T01:31:21.666Z,10.34
2018-03-20T01:33:50.142Z,9.48
2018-03-20T01:36:18.891Z,9.57
2018-03-20T01:38:47.098Z,10.11
2018-03-20T01:41:15.479Z,9.79
2018-03-20T01:43:43.746Z,10.06
2018-03-20T01:46:12.337Z,10.45
2018-03-20T01:48:40.617Z,10.76
2018-03-20T01:51:08.989Z,10.33
2018-03-20T01:53:37.675Z,10.12
2018-03-20T01:56:06.065Z,10.22
2018-03-20T01:58:34.430Z,10.11
2018-03-20T02:01:02.960Z,10.53
2018-03-20T02:03:31.481Z,10.61
2018-03-20T02:05:59.873Z,10.26
2018-03-20T02:08:28.152Z,10.52
2018-03-20T02:10:56.628Z,10.23
2018-03-20T02:13:25.250Z,10.20
2018-03-20T02:15:53.982Z,10.28
2018-03-20T02:18:22.480Z,10.40
2018-03-20T02:20:50.961Z,9.96
2018-03-20T02:23:19.248Z,9.59
2018-03-20T02:25:47.613Z,9.63
2018-03-20T02:28:15.978Z,9.42
2018-03-20T02:30:44.259Z,9.41
2018-03-20T02:33:12.530Z,9.70
2018-03-20T02:35:41.138Z,9.94
2018-03-20T02:38:09.601Z,10.31
2018-03-20T02:40:37.745Z,10.42
2018-03-20T02:43:06.269Z,10.66
2018-03-20T02:45:34.418Z,10.72
2018-03-20T02:48:02.610Z,10.62
2018-03-20T02:50:30.782Z,10.72
2018-03-20T02:52:59.366Z,10.75
2018-03-20T02:55:27.743Z,10.66
2018-03-20T02:57:56.942Z,10.48
2018-03-20T03:00:25.408Z,10.64
2018-03-20T03:02:53.690Z,10.63
2018-03-20T03:05:22.278Z,10.94
2018-03-20T03:07:50.661Z,10.71
2018-03-20T03:10:19.133Z,10.37
2018-03-20T03:12:47.389Z,10.36
2018-03-20T03:15:15.890Z,10.49
2018-03-20T03:17:44.483Z,10.28
2018-03-20T03:20:12.405Z,9.84
2018-03-20T03:22:40.468Z,9.56
2018-03-20T03:25:08.888Z,9.64
2018-03-20T03:27:37.065Z,9.90
2018-03-20T03:30:05.053Z,10.08
2018-03-20T03:32:33.413Z,10.42
2018-03-20T03:35:01.893Z,10.53
2018-03-20T03:37:30.156Z,10.28
2018-03-20T03:39:58.540Z,10.25
2018-03-20T03:42:27.022Z,10.04
2018-03-20T03:44:55.278Z,10.49
2018-03-20T03:47:23.887Z,10.63
2018-03-20T03:49:52.278Z,10.72
2018-03-20T03:52:20.318Z,10.76
2018-03-20T03:54:48.601Z,10.84
2018-03-20T03:57:17.085Z,10.67
2018-03-20T03:59:45.564Z,10.62
2018-03-20T04:02:13.833Z,10.65
2018-03-20T04:04:42.428Z,10.70
2018-03-20T04:07:11.104Z,10.55
2018-03-20T04:09:39.230Z,10.73
2018-03-20T04:12:07.768Z,10.07
2018-03-20T04:14:36.232Z,9.51
2018-03-20T04:17:04.717Z,10.01
2018-03-20T04:19:33.113Z,10.24
2018-03-20T04:22:01.465Z,10.53
2018-03-20T04:24:29.856Z,10.51
2018-03-20T04:26:58.327Z,10.50
2018-03-20T04:29:26.708Z,10.50
2018-03-20T04:31:55.505Z,10.56
2018-03-20T04:34:23.985Z,10.51
2018-03-20T04:36:52.052Z,10.37
2018-03-20T04:39:20.845Z,10.07
2018-03-20T04:41:49.059Z,10.27
2018-03-20T04:44:17.402Z,10.18
2018-03-20T04:46:45.767Z,10.46
2018-03-20T04:49:14.205Z,10.51
2018-03-20T04:51:42.738Z,10.32
2018-03-20T04:54:10.821Z,10.29
2018-03-20T04:56:39.290Z,10.27
2018-03-20T04:59:07.665Z,10.30
2018-03-20T05:01:35.937Z,10.05
2018-03-20T05:04:04.538Z,9.84
2018-03-20T05:06:33.003Z,9.45
2018-03-20T05:09:01.485Z,9.65
2018-03-20T05:11:29.981Z,10.12
2018-03-20T05:13:58.346Z,10.35
2018-03-20T05:16:26.822Z,10.47
2018-03-20T05:22:24.892Z,9.92
2018-03-20T05:24:53.195Z,10.52
2018-03-20T05:27:21.873Z,9.40
2018-03-20T05:29:50.465Z,9.64
2018-03-20T05:32:18.764Z,9.98
2018-03-20T05:34:47.227Z,9.86
2018-03-20T05:37:15.797Z,10.21
2018-03-20T05:39:44.322Z,10.38
2018-03-20T05:42:12.659Z,10.32
2018-03-20T05:44:41.022Z,10.23
2018-03-20T05:47:26.296Z,9.90
2018-03-20T05:50:14.641Z,9.50
2018-03-20T05:52:43.137Z,10.07
2018-03-20T05:55:11.731Z,10.58
2018-03-20T05:57:40.137Z,10.00
2018-03-20T06:00:09.596Z,10.12
2018-03-20T06:02:37.669Z,10.71
2018-03-20T06:05:06.247Z,11.12
2018-03-20T06:07:34.517Z,11.83
2018-03-20T06:10:03.022Z,12.54
2018-03-20T06:12:31.571Z,13.26
2018-03-20T06:14:59.801Z,13.72
2018-03-20T06:17:28.145Z,14.20
2018-03-20T06:19:56.729Z,14.63
2018-03-20T06:28:20.028Z,14.37
2018-03-20T06:30:48.716Z,14.40
2018-03-20T06:33:17.386Z,15.02
2018-03-20T06:35:46.241Z,15.34
2018-03-20T06:38:14.875Z,14.93
2018-03-20T06:40:43.467Z,15.20
2018-03-20T06:43:12.228Z,15.88
2018-03-20T06:45:40.516Z,16.34
2018-03-20T06:48:09.405Z,16.07
2018-03-20T06:50:38.286Z,16.22
2018-03-20T06:53:06.698Z,17.04
2018-03-20T06:55:35.261Z,16.86
2018-03-20T06:58:03.506Z,16.23
2018-03-20T07:00:31.914Z,16.42
2018-03-20T07:03:00.806Z,15.91
2018-03-20T07:05:29.194Z,16.05
2018-03-20T07:07:57.760Z,16.86
2018-03-20T07:10:26.333Z,17.30
2018-03-20T07:12:54.726Z,16.83
2018-03-20T07:15:23.410Z,17.12
2018-03-20T07:17:51.895Z,17.30
2018-03-20T07:20:20.347Z,18.08
2018-03-20T07:22:48.797Z,18.28
2018-03-20T07:25:17.538Z,18.62
2018-03-20T07:27:46.221Z,19.48
2018-03-20T07:30:14.591Z,19.60
2018-03-20T07:32:43.281Z,19.63
2018-03-20T07:35:11.205Z,19.77
2018-03-20T07:37:39.938Z,19.42
2018-03-20T07:40:08.298Z,19.27
2018-03-20T07:42:36.372Z,19.46
2018-03-20T07:45:04.853Z,20.01
2018-03-20T07:47:32.923Z,19.80
2018-03-20T07:50:01.524Z,20.97
2018-03-20T07:52:30.007Z,21.80
2018-03-20T07:54:58.582Z,21.28
2018-03-20T07:57:27.166Z,21.47
2018-03-20T07:59:55.837Z,21.70
2018-03-20T08:02:24.219Z,22.74
2018-03-20T08:04:52.921Z,21.17
2018-03-20T08:07:21.601Z,22.89
2018-03-20T08:09:49.968Z,23.46
2018-03-20T08:12:18.764Z,22.93
2018-03-20T08:14:47.141Z,19.87
2018-03-20T08:17:15.816Z,20.46
2018-03-20T08:19:43.741Z,20.80
2018-03-20T08:22:11.664Z,20.86
2018-03-20T08:24:39.625Z,19.94
2018-03-20T08:27:07.534Z,20.25
2018-03-20T08:29:35.875Z,19.07
2018-03-20T08:32:03.837Z,19.93
2018-03-20T08:34:31.833Z,19.50
2018-03-20T08:36:59.814Z,21.38
2018-03-20T08:39:27.825Z,21.44
2018-03-20T08:41:55.787Z,23.04
2018-03-20T08:44:23.812Z,22.83
2018-03-20T08:46:51.810Z,21.98
2018-03-20T08:49:19.778Z,22.73
2018-03-20T08:51:47.745Z,22.62
2018-03-20T08:54:15.675Z,22.73
2018-03-20T08:56:43.643Z,22.58
2018-03-20T08:59:11.594Z,20.74
2018-03-20T09:01:39.507Z,20.10
2018-03-20T09:04:07.588Z,21.36
2018-03-20T09:06:35.600Z,21.38
2018-03-20T09:09:03.619Z,21.59
2018-03-20T09:11:31.523Z,21.05
2018-03-20T09:13:59.481Z,20.02
2018-03-20T09:16:27.565Z,20.07
2018-03-20T09:18:55.943Z,21.29
2018-03-20T09:21:24.254Z,21.12
2018-03-20T09:23:52.813Z,22.16
2018-03-20T09:26:21.615Z,21.62
2018-03-20T09:28:50.290Z,22.23
2018-03-20T09:31:18.666Z,20.12
2018-03-20T09:33:47.246Z,19.99
2018-03-20T09:36:15.470Z,19.80
2018-03-20T09:38:44.000Z,19.64
2018-03-20T09:41:12.490Z,20.82
2018-03-20T09:43:41.054Z,20.64
2018-03-20T09:46:09.440Z,19.52
2018-03-20T09:48:37.930Z,19.75
2018-03-20T09:51:06.301Z,18.18
2018-03-20T09:53:34.687Z,20.06
2018-03-20T09:56:03.035Z,19.26
2018-03-20T09:58:31.440Z,20.66
2018-03-20T10:01:00.017Z,19.87
2018-03-20T10:03:28.394Z,20.70
2018-03-20T10:05:56.977Z,20.70
2018-03-20T10:08:25.345Z,22.25
2018-03-20T10:10:54.032Z,22.76
2018-03-20T10:13:22.629Z,21.90
2018-03-20T10:15:51.219Z,22.36
2018-03-20T10:18:19.602Z,22.34
2018-03-20T10:20:48.066Z,22.97
2018-03-20T10:23:15.956Z,23.14
2018-03-20T10:25:43.860Z,23.91
2018-03-20T10:28:11.818Z,23.53
2018-03-20T10:30:39.758Z,20.55
2018-03-20T10:33:08.017Z,22.11
2018-03-20T10:35:36.434Z,22.29
2018-03-20T10:38:04.410Z,21.81
2018-03-20T10:40:32.619Z,23.69
2018-03-20T10:43:01.325Z,23.34
2018-03-20T10:45:29.261Z,24.77
2018-03-20T10:47:57.206Z,24.07
2018-03-20T10:50:25.632Z,24.23
2018-03-20T10:52:54.022Z,22.04
2018-03-20T10:55:22.494Z,24.19
2018-03-20T10:57:51.074Z,25.33
2018-03-20T11:00:24.913Z,25.00
2018-03-20T11:02:53.676Z,23.84
2018-03-20T11:05:21.624Z,22.61
2018-03-20T11:07:49.601Z,23.43
2018-03-20T11:10:17.533Z,24.58
2018-03-20T11:12:45.510Z,24.10
2018-03-20T11:15:13.455Z,24.74
2018-03-20T11:17:41.334Z,23.73
2018-03-20T11:20:09.278Z,22.79
2018-03-20T11:22:37.249Z,23.37
2018-03-20T11:25:05.235Z,21.44
2018-03-20T11:27:33.243Z,21.94
2018-03-20T11:30:01.541Z,22.72
2018-03-20T11:32:30.006Z,23.04
2018-03-20T11:34:58.501Z,20.59
2018-03-20T11:37:26.443Z,20.43
2018-03-20T11:39:54.378Z,19.58
2018-03-20T11:42:22.339Z,18.89
2018-03-20T11:44:50.296Z,18.25
2018-03-20T11:47:18.246Z,17.63
2018-03-20T11:49:46.140Z,18.55
2018-03-20T11:52:14.097Z,19.41
2018-03-20T11:54:42.043Z,20.16
2018-03-20T11:57:10.007Z,21.16
2018-03-20T11:59:37.837Z,18.53
2018-03-20T12:02:05.766Z,18.74
2018-03-20T12:04:33.778Z,17.82
2018-03-20T12:07:02.486Z,19.32
2018-03-20T12:09:51.953Z,19.37
2018-03-20T12:12:20.328Z,19.93
2018-03-20T12:14:48.813Z,19.99
2018-03-20T12:17:17.480Z,19.10
2018-03-20T12:19:45.918Z,18.29
2018-03-20T12:22:14.562Z,17.78
2018-03-20T12:24:43.031Z,19.19
2018-03-20T12:27:11.631Z,19.19
2018-03-20T12:29:40.005Z,19.24
2018-03-20T12:32:08.586Z,19.02
2018-03-20T12:34:36.797Z,19.25
2018-03-20T12:37:05.649Z,19.49
2018-03-20T12:39:34.329Z,21.34
2018-03-20T12:42:02.591Z,21.13
2018-03-20T12:44:31.201Z,18.73
2018-03-20T12:47:00.181Z,19.68
2018-03-20T12:49:28.562Z,19.53
2018-03-20T12:51:57.041Z,19.84
2018-03-20T12:54:25.621Z,19.89
2018-03-20T12:56:54.213Z,19.41
2018-03-20T12:59:22.807Z,18.01
2018-03-20T13:01:50.847Z,17.62
2018-03-20T13:04:19.157Z,17.55
2018-03-20T13:06:47.095Z,17.66
2018-03-20T13:09:15.095Z,17.28
2018-03-20T13:11:43.093Z,16.86
2018-03-20T13:14:11.529Z,17.32
2018-03-20T13:16:40.040Z,17.33
2018-03-20T13:19:08.473Z,17.73
2018-03-20T13:21:37.260Z,17.35
2018-03-20T13:24:05.500Z,16.39
2018-03-20T13:26:34.230Z,17.61
2018-03-20T13:29:02.726Z,18.17
2018-03-20T13:31:30.982Z,19.08
2018-03-20T13:33:59.466Z,18.76
2018-03-20T13:36:28.040Z,17.77
2018-03-20T13:38:56.832Z,17.43
2018-03-20T13:41:25.312Z,18.41
2018-03-20T13:43:53.529Z,18.09
2018-03-20T13:46:21.972Z,18.20
2018-03-20T13:48:50.559Z,18.32
2018-03-20T13:51:19.122Z,18.28
2018-03-20T13:53:47.518Z,17.80
2018-03-20T13:56:15.993Z,18.09
2018-03-20T13:58:44.523Z,17.36
2018-03-20T14:01:12.955Z,17.80
2018-03-20T14:03:41.847Z,17.59
2018-03-20T14:06:10.438Z,16.94
2018-03-20T14:08:38.917Z,16.45
2018-03-20T14:11:07.286Z,16.76
2018-03-20T14:13:35.755Z,16.62
2018-03-20T14:16:04.251Z,16.88
2018-03-20T14:18:32.729Z,17.21
2018-03-20T14:21:01.058Z,17.88
2018-03-20T14:23:29.686Z,17.15
2018-03-20T14:25:58.065Z,16.96
2018-03-20T14:28:26.349Z,17.30
2018-03-20T14:30:54.622Z,18.12
2018-03-20T14:33:23.390Z,17.23
2018-03-20T14:35:51.894Z,17.34
2018-03-20T14:38:20.158Z,17.88
2018-03-20T14:40:48.728Z,16.68
2018-03-20T14:43:17.223Z,16.48
2018-03-20T14:45:45.807Z,16.89
2018-03-20T14:48:14.196Z,17.02
2018-03-20T14:50:42.674Z,17.00
2018-03-20T14:53:11.188Z,16.49
2018-03-20T14:55:39.730Z,16.83
2018-03-20T14:58:08.205Z,17.36
2018-03-20T15:00:36.789Z,17.87
2018-03-20T15:03:05.284Z,18.34
2018-03-20T15:05:33.848Z,19.19
2018-03-20T15:08:02.229Z,18.79
2018-03-20T15:10:30.714Z,18.44
2018-03-20T15:12:59.299Z,18.68
2018-03-20T15:15:27.877Z,18.24
2018-03-20T15:17:56.456Z,18.58
2018-03-20T15:20:24.790Z,17.91
2018-03-20T15:22:53.322Z,17.19
2018-03-20T15:25:21.911Z,16.60
2018-03-20T15:27:50.290Z,16.33
2018-03-20T15:30:18.862Z,16.46
2018-03-20T15:32:47.652Z,16.35
2018-03-20T15:35:16.240Z,16.31
2018-03-20T15:37:44.638Z,16.64
2018-03-20T15:40:13.496Z,16.58
2018-03-20T15:42:42.181Z,16.64
2018-03-20T15:45:10.576Z,16.38
2018-03-20T15:47:38.947Z,16.47
2018-03-20T15:50:07.723Z,16.57
2018-03-20T15:52:36.043Z,16.66
2018-03-20T15:55:04.367Z,16.42
2018-03-20T15:57:33.257Z,16.69
2018-03-20T16:00:01.515Z,16.80
2018-03-20T16:02:30.327Z,16.85
2018-03-20T16:04:58.802Z,17.05
2018-03-20T16:07:27.298Z,16.46
2018-03-20T16:09:56.097Z,16.38
2018-03-20T16:12:24.456Z,15.69
2018-03-20T16:14:52.891Z,15.61
2018-03-20T16:17:21.520Z,15.75
2018-03-20T16:19:49.736Z,16.16
2018-03-20T16:22:18.590Z,15.74
2018-03-20T16:24:46.772Z,14.72
2018-03-20T16:27:15.346Z,14.70
2018-03-20T16:29:43.715Z,14.85
2018-03-20T16:32:12.337Z,14.78
2018-03-20T16:34:40.990Z,14.52
2018-03-20T16:37:09.764Z,14.59
2018-03-20T16:39:38.297Z,14.26
2018-03-20T16:42:06.838Z,14.44
2018-03-20T16:44:35.839Z,14.32
2018-03-20T16:47:04.186Z,14.11
2018-03-20T16:49:32.789Z,14.02
2018-03-20T16:52:01.582Z,13.82
2018-03-20T16:54:30.060Z,13.83
2018-03-20T16:56:58.235Z,13.89
2018-03-20T16:59:26.720Z,13.86
2018-03-20T17:01:55.300Z,14.25
2018-03-20T17:04:23.882Z,14.42
2018-03-20T17:06:52.257Z,14.40
2018-03-20T17:09:20.657Z,14.42
2018-03-20T17:11:49.121Z,14.40
2018-03-20T17:14:17.476Z,14.15
2018-03-20T17:16:45.769Z,14.23
2018-03-20T17:19:14.048Z,14.14
2018-03-20T17:21:42.732Z,14.18
2018-03-20T17:24:11.214Z,14.00
2018-03-20T17:26:39.650Z,14.34
2018-03-20T17:29:08.093Z,14.38
2018-03-20T17:31:36.970Z,14.33
2018-03-20T17:34:05.194Z,13.61
2018-03-20T17:36:33.613Z,13.09
2018-03-20T17:39:02.712Z,13.10
2018-03-20T17:41:31.397Z,13.23
2018-03-20T17:43:59.991Z,13.62
2018-03-20T17:46:28.616Z,13.44
2018-03-20T17:48:57.350Z,13.59
2018-03-20T17:51:25.930Z,13.84
2018-03-20T17:53:54.762Z,13.87
2018-03-20T17:56:23.198Z,13.79
2018-03-20T17:58:51.787Z,13.77
2018-03-20T18:01:20.348Z,13.33
2018-03-20T18:03:48.847Z,13.52
2018-03-20T18:06:17.426Z,13.72
2018-03-20T18:08:46.008Z,13.57
2018-03-20T18:11:14.494Z,12.65
2018-03-20T18:13:42.944Z,12.64
2018-03-20T18:16:11.448Z,12.72
2018-03-20T18:18:39.932Z,13.23
2018-03-20T18:21:08.474Z,13.36
2018-03-20T18:23:36.894Z,13.43
2018-03-20T18:26:05.876Z,13.22
2018-03-20T18:28:34.274Z,13.36
2018-03-20T18:31:02.956Z,13.36
2018-03-20T18:33:31.635Z,13.44
2018-03-20T18:35:59.654Z,13.44
2018-03-20T18:38:28.593Z,13.43
2018-03-20T18:40:57.278Z,13.33
2018-03-20T18:43:25.757Z,12.91
2018-03-20T18:45:54.228Z,12.21
2018-03-20T18:48:22.822Z,12.36
2018-03-20T18:50:51.515Z,12.97
2018-03-20T18:53:19.687Z,13.16
2018-03-20T18:55:47.953Z,13.39
2018-03-20T18:58:16.350Z,13.84
2018-03-20T19:00:44.923Z,13.70
2018-03-20T19:03:13.401Z,13.47
2018-03-20T19:05:41.809Z,13.49
2018-03-20T19:08:10.365Z,13.58
2018-03-20T19:10:38.899Z,13.59
2018-03-20T19:13:07.209Z,13.59
2018-03-20T19:15:35.706Z,13.50
2018-03-20T19:18:04.369Z,13.47
2018-03-20T19:20:32.920Z,12.45
2018-03-20T19:23:01.463Z,13.00
2018-03-20T19:25:30.024Z,13.17
2018-03-20T19:27:58.515Z,13.10
2018-03-20T19:30:26.985Z,13.21
2018-03-20T19:32:55.248Z,13.11
2018-03-20T19:35:23.846Z,13.23
2018-03-20T19:37:52.629Z,13.10
2018-03-20T19:40:21.212Z,12.95
2018-03-20T19:42:49.629Z,13.03
2018-03-20T19:45:18.074Z,12.86
2018-03-20T19:47:46.652Z,13.29
2018-03-20T19:50:15.554Z,13.41
2018-03-20T19:52:43.925Z,13.15
2018-03-20T19:55:12.306Z,13.03
2018-03-20T19:57:40.868Z,12.92
2018-03-20T20:00:09.144Z,12.87
2018-03-20T20:02:37.647Z,12.66
2018-03-20T20:05:06.141Z,12.81
2018-03-20T20:07:34.711Z,12.89
2018-03-20T20:10:03.392Z,12.93
2018-03-20T20:12:31.770Z,12.90
2018-03-20T20:15:00.354Z,12.17
2018-03-20T20:17:28.940Z,12.34
2018-03-20T20:19:57.419Z,12.55
2018-03-20T20:22:25.890Z,12.59
2018-03-20T20:24:54.375Z,12.59
2018-03-20T20:27:22.654Z,12.67
2018-03-20T20:29:51.033Z,11.77
2018-03-20T20:32:19.617Z,11.49
2018-03-20T20:34:48.098Z,11.31
2018-03-20T20:37:16.490Z,11.18
2018-03-20T20:39:45.079Z,11.78
2018-03-20T20:42:13.535Z,11.92
2018-03-20T20:44:41.904Z,12.25
2018-03-20T20:47:10.494Z,12.21
2018-03-20T20:49:38.972Z,12.20
2018-03-20T20:52:07.752Z,12.21
2018-03-20T20:54:36.241Z,12.26
2018-03-20T20:57:04.820Z,12.23
2018-03-20T20:59:33.300Z,11.90
2018-03-20T21:02:01.891Z,11.96
2018-03-20T21:04:29.864Z,11.82
2018-03-20T21:06:57.877Z,12.06
2018-03-20T21:09:26.185Z,11.53
2018-03-20T21:11:54.581Z,10.84
2018-03-20T21:14:23.162Z,10.70
2018-03-20T21:16:51.750Z,11.15
2018-03-20T21:19:20.132Z,11.55
2018-03-20T21:21:48.604Z,11.79
2018-03-20T21:24:17.290Z,11.89
2018-03-20T21:26:45.565Z,12.09
2018-03-20T21:29:14.149Z,12.04
2018-03-20T21:31:43.091Z,12.12
2018-03-20T21:34:11.604Z,11.81
2018-03-20T21:36:39.899Z,11.89
2018-03-20T21:39:08.477Z,11.67
2018-03-20T21:41:36.852Z,11.41
2018-03-20T21:44:05.343Z,11.94
2018-03-20T21:46:33.904Z,12.11
2018-03-20T21:49:02.402Z,12.20
2018-03-20T21:51:30.682Z,12.10
2018-03-20T21:53:59.098Z,11.63
2018-03-20T21:56:27.732Z,10.99
2018-03-20T21:58:55.961Z,11.83
2018-03-20T22:01:24.504Z,12.16
2018-03-20T22:03:53.381Z,11.73
2018-03-20T22:06:22.182Z,12.00
2018-03-20T22:08:50.964Z,12.24
2018-03-20T22:11:19.437Z,11.99
2018-03-20T22:13:47.708Z,12.06
2018-03-20T22:16:16.093Z,12.22
2018-03-20T22:18:44.370Z,12.29
2018-03-20T22:21:13.056Z,12.39
2018-03-20T22:23:41.538Z,12.32
2018-03-20T22:26:09.748Z,12.29
2018-03-20T22:28:38.313Z,12.29
2018-03-20T22:31:06.862Z,12.29
2018-03-20T22:33:35.516Z,12.27
2018-03-20T22:36:03.942Z,12.36
2018-03-20T22:38:32.925Z,12.35
2018-03-20T22:41:01.323Z,12.38
2018-03-20T22:43:29.588Z,12.33
2018-03-20T22:45:57.961Z,12.18
2018-03-20T22:48:26.243Z,12.21
2018-03-20T22:50:54.826Z,12.20
2018-03-20T22:53:22.996Z,12.09
2018-03-20T22:55:51.834Z,12.07
2018-03-20T22:58:20.266Z,12.11
2018-03-20T23:00:48.630Z,12.04
2018-03-20T23:03:17.410Z,12.07
2018-03-20T23:05:45.863Z,12.10
2018-03-20T23:51:54.302Z,11.59
2018-03-20T23:54:22.781Z,11.51
2018-03-20T23:56:51.097Z,11.45
2018-03-20T23:59:19.542Z,11.48
